sensor_id;sensor_type;location;lat;lon;timestamp;pressure;altitude;pressure_sealevel;temperature;humidity
30463;BME280;17256;43.618;25.336;2022-09-16T00:00:11;99558.06;;;26.38;47.52
30463;BME280;17256;43.618;25.336;2022-09-16T00:02:36;99535.19;;;26.30;46.56
30463;BME280;17256;43.618;25.336;2022-09-16T00:05:02;99555.41;;;26.50;46.63
30463;BME280;17256;43.618;25.336;2022-09-16T00:07:28;99645.56;;;27.02;46.67
30463;BME280;17256;43.618;25.336;2022-09-16T00:09:54;99640.41;;;26.95;46.20
30463;BME280;17256;43.618;25.336;2022-09-16T00:18:20;99562.53;;;26.73;45.15
30463;BME280;17256;43.618;25.336;2022-09-16T00:24:11;99598.66;;;27.14;44.82
30463;BME280;17256;43.618;25.336;2022-09-16T00:26:38;99632.25;;;27.45;45.11
30463;BME280;17256;43.618;25.336;2022-09-16T00:37:57;99649.16;;;27.63;44.81
30463;BME280;17256;43.618;25.336;2022-09-16T00:40:22;99730.53;;;27.99;44.95
30463;BME280;17256;43.618;25.336;2022-09-16T00:42:48;99586.72;;;27.17;45.25
30463;BME280;17256;43.618;25.336;2022-09-16T00:48:25;99580.25;;;27.00;45.70
30463;BME280;17256;43.618;25.336;2022-09-16T00:58:17;99718.00;;;27.44;46.39
30463;BME280;17256;43.618;25.336;2022-09-16T01:00:45;99520.59;;;26.11;47.08
30463;BME280;17256;43.618;25.336;2022-09-16T01:56:48;99772.25;;;26.67;48.62
30463;BME280;17256;43.618;25.336;2022-09-16T01:59:21;99721.69;;;26.14;49.16
30463;BME280;17256;43.618;25.336;2022-09-16T02:05:01;99589.97;;;25.23;49.09
30463;BME280;17256;43.618;25.336;2022-09-16T04:44:56;99720.06;;;26.21;49.81
30463;BME280;17256;43.618;25.336;2022-09-16T05:04:33;99648.59;;;25.60;50.17
30463;BME280;17256;43.618;25.336;2022-09-16T05:16:29;99762.13;;;26.26;50.93
30463;BME280;17256;43.618;25.336;2022-09-16T05:21:58;99875.34;;;27.16;51.59
30463;BME280;17256;43.618;25.336;2022-09-16T05:27:33;99813.78;;;27.01;51.20
30463;BME280;17256;43.618;25.336;2022-09-16T05:30:00;99755.69;;;26.74;50.74
30463;BME280;17256;43.618;25.336;2022-09-16T05:32:25;99694.84;;;26.47;50.78
30463;BME280;17256;43.618;25.336;2022-09-16T05:34:51;99834.09;;;27.46;51.23
30463;BME280;17256;43.618;25.336;2022-09-16T05:37:17;99727.34;;;26.62;51.08
30463;BME280;17256;43.618;25.336;2022-09-16T06:12:43;99804.94;;;27.68;52.86
30463;BME280;17256;43.618;25.336;2022-09-16T06:15:09;99736.09;;;27.52;52.21
30463;BME280;17256;43.618;25.336;2022-09-16T07:29:45;99809.06;;;27.97;55.12
30463;BME280;17256;43.618;25.336;2022-09-16T07:36:01;99880.47;;;28.87;52.37
30463;BME280;17256;43.618;25.336;2022-09-16T07:38:28;99952.81;;;29.26;53.11
30463;BME280;17256;43.618;25.336;2022-09-16T07:40:54;99954.06;;;29.37;54.22
30463;BME280;17256;43.618;25.336;2022-09-16T07:43:20;99913.66;;;28.99;52.96
30463;BME280;17256;43.618;25.336;2022-09-16T07:45:46;99842.44;;;28.67;52.67
30463;BME280;17256;43.618;25.336;2022-09-16T07:48:12;99815.38;;;28.66;52.29
30463;BME280;17256;43.618;25.336;2022-09-16T07:50:37;99946.53;;;29.80;52.56
30463;BME280;17256;43.618;25.336;2022-09-16T07:53:03;99839.88;;;29.51;49.98
30463;BME280;17256;43.618;25.336;2022-09-16T07:55:29;99871.19;;;29.66;51.14
30463;BME280;17256;43.618;25.336;2022-09-16T07:57:55;99783.88;;;29.15;51.22
30463;BME280;17256;43.618;25.336;2022-09-16T08:00:20;99898.13;;;29.52;51.71
30463;BME280;17256;43.618;25.336;2022-09-16T08:02:46;99878.53;;;29.08;51.36
30463;BME280;17256;43.618;25.336;2022-09-16T08:05:12;99912.63;;;29.41;51.93
30463;BME280;17256;43.618;25.336;2022-09-16T08:07:37;99854.38;;;29.40;51.03
30463;BME280;17256;43.618;25.336;2022-09-16T08:10:03;99907.56;;;29.97;50.46
30463;BME280;17256;43.618;25.336;2022-09-16T08:12:29;99950.31;;;30.46;49.89
30463;BME280;17256;43.618;25.336;2022-09-16T08:15:02;99879.22;;;30.39;48.75
30463;BME280;17256;43.618;25.336;2022-09-16T08:17:28;99890.19;;;30.28;47.87
30463;BME280;17256;43.618;25.336;2022-09-16T08:19:54;99804.78;;;29.85;49.16
30463;BME280;17256;43.618;25.336;2022-09-16T08:22:36;99838.63;;;29.81;48.46
30463;BME280;17256;43.618;25.336;2022-09-16T08:25:01;99874.72;;;30.26;49.55
30463;BME280;17256;43.618;25.336;2022-09-16T08:27:27;99938.44;;;30.53;48.41
30463;BME280;17256;43.618;25.336;2022-09-16T08:29:52;99948.97;;;30.11;48.29
30463;BME280;17256;43.618;25.336;2022-09-16T08:32:18;99769.47;;;28.40;49.71
30463;BME280;17256;43.618;25.336;2022-09-16T08:34:44;99941.59;;;29.68;50.18
30463;BME280;17256;43.618;25.336;2022-09-16T08:37:09;99854.13;;;29.04;51.14
30463;BME280;17256;43.618;25.336;2022-09-16T08:39:35;99910.63;;;29.51;51.01
30463;BME280;17256;43.618;25.336;2022-09-16T08:47:39;99932.53;;;30.91;48.21
30463;BME280;17256;43.618;25.336;2022-09-16T08:50:17;99926.25;;;30.85;49.00
30463;BME280;17256;43.618;25.336;2022-09-16T08:52:44;99855.97;;;30.79;48.12
30463;BME280;17256;43.618;25.336;2022-09-16T08:58:22;99892.66;;;31.33;47.59
30463;BME280;17256;43.618;25.336;2022-09-16T09:00:59;99870.78;;;31.21;47.19
30463;BME280;17256;43.618;25.336;2022-09-16T09:03:35;99908.84;;;31.32;47.05
30463;BME280;17256;43.618;25.336;2022-09-16T09:06:05;99876.19;;;31.38;46.01
30463;BME280;17256;43.618;25.336;2022-09-16T09:08:48;99889.06;;;31.60;47.30
30463;BME280;17256;43.618;25.336;2022-09-16T09:11:26;99891.09;;;31.35;45.97
30463;BME280;17256;43.618;25.336;2022-09-16T09:14:56;99897.09;;;31.09;45.91
30463;BME280;17256;43.618;25.336;2022-09-16T09:17:06;99893.56;;;31.61;46.92
30463;BME280;17256;43.618;25.336;2022-09-16T09:22:59;99897.13;;;32.38;46.39
30463;BME280;17256;43.618;25.336;2022-09-16T09:28:16;99889.53;;;31.62;44.54
30463;BME280;17256;43.618;25.336;2022-09-16T09:39:27;99896.59;;;31.68;45.48
30463;BME280;17256;43.618;25.336;2022-09-16T09:42:12;99893.56;;;31.61;45.04
30463;BME280;17256;43.618;25.336;2022-09-16T09:44:46;99864.97;;;31.54;45.00
30463;BME280;17256;43.618;25.336;2022-09-16T09:47:18;99873.53;;;31.82;45.03
30463;BME280;17256;43.618;25.336;2022-09-16T09:49:49;99877.88;;;31.92;44.34
30463;BME280;17256;43.618;25.336;2022-09-16T09:52:25;99861.66;;;31.92;44.34
30463;BME280;17256;43.618;25.336;2022-09-16T09:54:52;99876.22;;;32.31;44.16
30463;BME280;17256;43.618;25.336;2022-09-16T09:57:29;99873.75;;;32.29;43.74
30463;BME280;17256;43.618;25.336;2022-09-16T10:00:14;99868.88;;;32.73;43.28
30463;BME280;17256;43.618;25.336;2022-09-16T10:02:43;99859.81;;;32.99;43.14
30463;BME280;17256;43.618;25.336;2022-09-16T10:05:28;99863.38;;;33.12;43.83
30463;BME280;17256;43.618;25.336;2022-09-16T10:07:59;99842.47;;;33.04;43.77
30463;BME280;17256;43.618;25.336;2022-09-16T10:10:31;99814.56;;;32.63;42.25
30463;BME280;17256;43.618;25.336;2022-09-16T10:13:10;99857.34;;;32.82;42.68
30463;BME280;17256;43.618;25.336;2022-09-16T10:15:38;99849.66;;;32.98;42.41
30463;BME280;17256;43.618;25.336;2022-09-16T10:18:25;99893.56;;;33.17;43.34
30463;BME280;17256;43.618;25.336;2022-09-16T10:23:30;99830.25;;;33.36;42.11
30463;BME280;17256;43.618;25.336;2022-09-16T10:29:00;99856.69;;;33.71;41.00
30463;BME280;17256;43.618;25.336;2022-09-16T10:34:43;99848.03;;;33.17;41.57
30463;BME280;17256;43.618;25.336;2022-09-16T10:39:37;99882.19;;;33.32;42.40
30463;BME280;17256;43.618;25.336;2022-09-16T10:42:04;99883.28;;;33.12;41.58
30463;BME280;17256;43.618;25.336;2022-09-16T10:44:32;99841.91;;;32.24;41.84
30463;BME280;17256;43.618;25.336;2022-09-16T10:47:13;99854.09;;;32.24;43.23
30463;BME280;17256;43.618;25.336;2022-09-16T10:49:52;99875.53;;;32.50;42.63
30463;BME280;17256;43.618;25.336;2022-09-16T10:52:25;99814.69;;;31.95;42.13
30463;BME280;17256;43.618;25.336;2022-09-16T10:54:51;99867.34;;;32.32;43.35
30463;BME280;17256;43.618;25.336;2022-09-16T10:57:31;99823.22;;;31.95;43.17
30463;BME280;17256;43.618;25.336;2022-09-16T11:00:06;99673.59;;;30.99;42.20
30463;BME280;17256;43.618;25.336;2022-09-16T11:19:36;99834.47;;;32.47;43.94
30463;BME280;17256;43.618;25.336;2022-09-16T11:25:25;99805.22;;;32.03;42.67
30463;BME280;17256;43.618;25.336;2022-09-16T11:28:31;99839.38;;;32.34;43.73
30463;BME280;17256;43.618;25.336;2022-09-16T11:33:44;99781.50;;;31.83;44.78
30463;BME280;17256;43.618;25.336;2022-09-16T11:36:22;99811.34;;;32.05;43.93
30463;BME280;17256;43.618;25.336;2022-09-16T11:45:14;99788.53;;;32.01;43.11
30463;BME280;17256;43.618;25.336;2022-09-16T11:56:58;99821.41;;;31.62;44.54
30463;BME280;17256;43.618;25.336;2022-09-16T11:59:42;99781.91;;;31.17;45.81
30463;BME280;17256;43.618;25.336;2022-09-16T12:02:28;99815.81;;;31.13;45.34
30463;BME280;17256;43.618;25.336;2022-09-16T12:07:59;99803.53;;;31.21;45.54
30463;BME280;17256;43.618;25.336;2022-09-16T12:10:44;99794.31;;;31.25;45.90
30463;BME280;17256;43.618;25.336;2022-09-16T12:13:15;99774.44;;;31.12;45.67
30463;BME280;17256;43.618;25.336;2022-09-16T12:15:53;99785.56;;;31.17;45.57
30463;BME280;17256;43.618;25.336;2022-09-16T12:18:49;99796.41;;;31.15;45.69
30463;BME280;17256;43.618;25.336;2022-09-16T12:24:02;99798.94;;;31.17;47.31
30463;BME280;17256;43.618;25.336;2022-09-16T12:26:33;99797.16;;;31.25;47.25
30463;BME280;17256;43.618;25.336;2022-09-16T12:31:56;99814.28;;;31.28;47.57
30463;BME280;17256;43.618;25.336;2022-09-16T12:34:59;99799.50;;;31.35;48.06
30463;BME280;17256;43.618;25.336;2022-09-16T12:37:32;99803.06;;;31.07;46.47
30463;BME280;17256;43.618;25.336;2022-09-16T12:40:00;99790.66;;;30.87;46.89
30463;BME280;17256;43.618;25.336;2022-09-16T12:43:09;99771.84;;;30.58;47.47
30463;BME280;17256;43.618;25.336;2022-09-16T13:01:34;99658.19;;;28.62;59.88
30463;BME280;17256;43.618;25.336;2022-09-16T13:04:26;99769.19;;;29.21;60.19
30463;BME280;17256;43.618;25.336;2022-09-16T13:06:53;99784.94;;;29.31;62.26
30463;BME280;17256;43.618;25.336;2022-09-16T13:09:33;99819.84;;;29.35;65.00
30463;BME280;17256;43.618;25.336;2022-09-16T13:12:03;99808.50;;;29.14;65.18
30463;BME280;17256;43.618;25.336;2022-09-16T13:14:53;99787.69;;;28.89;63.76
30463;BME280;17256;43.618;25.336;2022-09-16T13:17:28;99762.63;;;28.79;64.98
30463;BME280;17256;43.618;25.336;2022-09-16T13:19:58;99773.25;;;28.82;62.70
30463;BME280;17256;43.618;25.336;2022-09-16T13:22:40;99742.00;;;28.49;63.87
30463;BME280;17256;43.618;25.336;2022-09-16T13:29:23;99697.97;;;28.10;62.73
30463;BME280;17256;43.618;25.336;2022-09-16T13:31:49;99611.28;;;27.72;63.50
30463;BME280;17256;43.618;25.336;2022-09-16T13:34:16;99753.66;;;28.77;63.36
30463;BME280;17256;43.618;25.336;2022-09-16T13:36:43;99730.25;;;28.76;61.39
30463;BME280;17256;43.618;25.336;2022-09-16T13:39:25;99757.53;;;29.02;62.09
30463;BME280;17256;43.618;25.336;2022-09-16T13:45:46;99635.81;;;27.89;59.16
30463;BME280;17256;43.618;25.336;2022-09-16T13:48:23;99754.38;;;28.65;59.87
30463;BME280;17256;43.618;25.336;2022-09-16T13:50:58;99759.63;;;28.46;58.75
30463;BME280;17256;43.618;25.336;2022-09-16T13:53:36;99731.91;;;28.39;58.01
30463;BME280;17256;43.618;25.336;2022-09-16T13:59:15;99738.13;;;28.62;59.63
30463;BME280;17256;43.618;25.336;2022-09-16T14:09:51;99777.19;;;29.19;60.86
30463;BME280;17256;43.618;25.336;2022-09-16T14:15:12;99736.69;;;28.86;60.64
30463;BME280;17256;43.618;25.336;2022-09-16T14:17:41;99776.22;;;29.15;58.99
30463;BME280;17256;43.618;25.336;2022-09-16T14:20:19;99775.88;;;29.17;58.61
30463;BME280;17256;43.618;25.336;2022-09-16T14:22:45;99711.63;;;28.75;59.73
30463;BME280;17256;43.618;25.336;2022-09-16T14:25:32;99782.00;;;29.19;58.75
30463;BME280;17256;43.618;25.336;2022-09-16T14:28:26;99749.44;;;28.92;58.64
30463;BME280;17256;43.618;25.336;2022-09-16T14:30:59;99779.66;;;29.21;58.80
30463;BME280;17256;43.618;25.336;2022-09-16T14:33:41;99700.22;;;28.63;59.06
30463;BME280;17256;43.618;25.336;2022-09-16T14:36:20;99770.66;;;28.98;59.54
30463;BME280;17256;43.618;25.336;2022-09-16T14:41:48;99658.25;;;28.15;60.67
30463;BME280;17256;43.618;25.336;2022-09-16T14:49:30;99699.81;;;28.06;61.71
30463;BME280;17256;43.618;25.336;2022-09-16T14:52:00;99706.63;;;28.05;61.78
30463;BME280;17256;43.618;25.336;2022-09-16T14:58:25;99774.00;;;28.15;64.78
30463;BME280;17256;43.618;25.336;2022-09-16T15:03:27;99762.59;;;27.94;66.92
30463;BME280;17256;43.618;25.336;2022-09-16T15:05:57;99728.63;;;27.65;67.49
30463;BME280;17256;43.618;25.336;2022-09-16T15:12:25;99619.88;;;26.77;68.68
30463;BME280;17256;43.618;25.336;2022-09-16T15:14:52;99594.50;;;26.60;69.35
30463;BME280;17256;43.618;25.336;2022-09-16T15:17:20;99760.47;;;27.56;69.83
30463;BME280;17256;43.618;25.336;2022-09-16T15:19:58;99580.06;;;26.44;69.83
30463;BME280;17256;43.618;25.336;2022-09-16T15:25:33;99702.94;;;27.14;70.60
30463;BME280;17256;43.618;25.336;2022-09-16T15:31:28;99664.09;;;26.85;71.36
30463;BME280;17256;43.618;25.336;2022-09-16T15:33:54;99595.97;;;26.49;71.93
30463;BME280;17256;43.618;25.336;2022-09-16T15:42:45;99702.59;;;27.24;73.95
30463;BME280;17256;43.618;25.336;2022-09-16T15:45:16;99527.53;;;26.22;73.37
30463;BME280;17256;43.618;25.336;2022-09-16T15:55:42;99708.72;;;27.35;72.61
30463;BME280;17256;43.618;25.336;2022-09-16T15:58:38;99562.34;;;26.44;72.51
30463;BME280;17256;43.618;25.336;2022-09-16T16:07:06;99636.41;;;26.70;73.96
30463;BME280;17256;43.618;25.336;2022-09-16T16:09:36;99644.91;;;26.79;73.15
30463;BME280;17256;43.618;25.336;2022-09-16T16:12:06;99628.47;;;26.55;73.58
30463;BME280;17256;43.618;25.336;2022-09-16T16:14:33;99648.34;;;26.67;72.62
30463;BME280;17256;43.618;25.336;2022-09-16T16:17:00;99680.84;;;26.90;72.49
30463;BME280;17256;43.618;25.336;2022-09-16T16:19:27;99678.19;;;26.85;73.32
30463;BME280;17256;43.618;25.336;2022-09-16T16:21:53;99575.25;;;26.27;72.59
30463;BME280;17256;43.618;25.336;2022-09-16T16:24:22;99510.41;;;25.75;73.24
30463;BME280;17256;43.618;25.336;2022-09-16T16:26:51;99566.75;;;26.10;73.40
30463;BME280;17256;43.618;25.336;2022-09-16T16:29:19;99666.72;;;26.73;72.85
30463;BME280;17256;43.618;25.336;2022-09-16T16:41:06;99537.06;;;25.78;72.57
30463;BME280;17256;43.618;25.336;2022-09-16T16:43:32;99590.75;;;26.16;73.36
30463;BME280;17256;43.618;25.336;2022-09-16T16:45:57;99498.91;;;25.55;73.99
30463;BME280;17256;43.618;25.336;2022-09-16T16:48:25;99512.47;;;25.61;74.67
30463;BME280;17256;43.618;25.336;2022-09-16T16:53:49;99523.69;;;25.53;75.21
30463;BME280;17256;43.618;25.336;2022-09-16T16:56:16;99637.66;;;26.29;75.62
30463;BME280;17256;43.618;25.336;2022-09-16T16:58:41;99508.59;;;25.40;76.26
30463;BME280;17256;43.618;25.336;2022-09-16T17:07:40;99652.28;;;26.00;74.09
30463;BME280;17256;43.618;25.336;2022-09-16T17:13:03;99575.34;;;25.34;73.24
30463;BME280;17256;43.618;25.336;2022-09-16T17:15:28;99552.31;;;25.24;72.61
30463;BME280;17256;43.618;25.336;2022-09-16T17:17:54;99527.38;;;25.00;72.59
30463;BME280;17256;43.618;25.336;2022-09-16T17:20:20;99473.50;;;24.53;71.42
30463;BME280;17256;43.618;25.336;2022-09-16T17:41:17;99475.25;;;24.40;66.98
30463;BME280;17256;43.618;25.336;2022-09-16T17:54:20;99460.16;;;24.14;67.31
30463;BME280;17256;43.618;25.336;2022-09-16T19:54:33;99555.06;;;22.59;77.92
30463;BME280;17256;43.618;25.336;2022-09-16T19:58:43;99715.44;;;23.49;78.17
30463;BME280;17256;43.618;25.336;2022-09-16T20:01:46;99341.34;;;21.15;77.24
30463;BME280;17256;43.618;25.336;2022-09-16T20:04:52;99513.84;;;22.27;77.85
30463;BME280;17256;43.618;25.336;2022-09-16T20:07:52;99666.03;;;23.07;77.20
30463;BME280;17256;43.618;25.336;2022-09-16T20:10:55;99448.25;;;21.82;78.16
30463;BME280;17256;43.618;25.336;2022-09-16T20:14:18;99639.91;;;22.92;78.47
30463;BME280;17256;43.618;25.336;2022-09-16T20:17:39;99331.59;;;21.12;78.09
30463;BME280;17256;43.618;25.336;2022-09-16T20:21:06;99312.03;;;20.94;78.41
30463;BME280;17256;43.618;25.336;2022-09-16T20:24:02;99731.31;;;23.53;78.02
30463;BME280;17256;43.618;25.336;2022-09-16T20:26:53;99725.50;;;23.50;79.55
30463;BME280;17256;43.618;25.336;2022-09-16T20:30:02;99732.56;;;23.47;78.64
30463;BME280;17256;43.618;25.336;2022-09-16T20:33:09;99407.97;;;21.45;77.75
30463;BME280;17256;43.618;25.336;2022-09-16T20:36:30;99336.38;;;20.88;78.16
30463;BME280;17256;43.618;25.336;2022-09-16T20:51:33;99324.34;;;21.11;79.20
30463;BME280;17256;43.618;25.336;2022-09-16T20:54:17;99553.00;;;22.65;79.84
30463;BME280;17256;43.618;25.336;2022-09-16T20:57:01;99605.38;;;22.83;80.48
30463;BME280;17256;43.618;25.336;2022-09-16T21:05:37;99458.22;;;21.88;81.19
30463;BME280;17256;43.618;25.336;2022-09-16T21:08:34;99476.66;;;21.89;80.80
30463;BME280;17256;43.618;25.336;2022-09-16T21:11:15;99344.53;;;21.03;81.50
30463;BME280;17256;43.618;25.336;2022-09-16T21:13:56;99405.09;;;21.50;82.45
30463;BME280;17256;43.618;25.336;2022-09-16T21:17:08;99317.00;;;20.97;80.74
30463;BME280;17256;43.618;25.336;2022-09-16T21:29:06;99377.94;;;21.13;81.89
30463;BME280;17256;43.618;25.336;2022-09-16T21:33:03;99457.25;;;21.55;83.10
30463;BME280;17256;43.618;25.336;2022-09-16T21:36:14;99369.88;;;20.88;83.02
30463;BME280;17256;43.618;25.336;2022-09-16T21:39:53;99292.69;;;20.54;83.79
30463;BME280;17256;43.618;25.336;2022-09-16T21:42:57;99336.31;;;20.69;84.36
30463;BME280;17256;43.618;25.336;2022-09-16T22:03:51;99328.66;;;20.27;89.14
30463;BME280;17256;43.618;25.336;2022-09-16T22:06:21;99344.75;;;20.35;90.81
30463;BME280;17256;43.618;25.336;2022-09-16T22:08:57;99577.50;;;21.69;91.47
30463;BME280;17256;43.618;25.336;2022-09-16T22:11:31;99303.22;;;20.05;91.06
30463;BME280;17256;43.618;25.336;2022-09-16T22:14:03;99489.22;;;21.20;90.79
30463;BME280;17256;43.618;25.336;2022-09-16T22:16:54;99542.56;;;21.47;90.77
30463;BME280;17256;43.618;25.336;2022-09-16T22:19:27;99429.97;;;20.75;91.33
30463;BME280;17256;43.618;25.336;2022-09-16T22:22:27;99331.91;;;20.10;92.10
30463;BME280;17256;43.618;25.336;2022-09-16T22:25:09;99700.78;;;22.63;91.89
30463;BME280;17256;43.618;25.336;2022-09-16T22:27:46;99280.75;;;19.96;93.08
30463;BME280;17256;43.618;25.336;2022-09-16T22:30:32;99258.56;;;19.86;92.93
30463;BME280;17256;43.618;25.336;2022-09-16T22:33:04;99304.88;;;20.06;92.16
30463;BME280;17256;43.618;25.336;2022-09-16T22:36:10;99489.00;;;21.16;93.65
30463;BME280;17256;43.618;25.336;2022-09-16T22:38:55;99694.78;;;22.51;94.18
30463;BME280;17256;43.618;25.336;2022-09-16T22:41:25;99281.22;;;20.03;94.63
30463;BME280;17256;43.618;25.336;2022-09-16T22:43:56;99384.88;;;20.68;94.88
30463;BME280;17256;43.618;25.336;2022-09-16T22:46:26;99301.66;;;19.93;96.22
30463;BME280;17256;43.618;25.336;2022-09-16T22:48:57;99592.09;;;21.90;96.75
30463;BME280;17256;43.618;25.336;2022-09-16T22:51:28;99453.28;;;20.89;97.34
30463;BME280;17256;43.618;25.336;2022-09-16T22:53:56;99493.88;;;21.30;96.34
30463;BME280;17256;43.618;25.336;2022-09-16T22:56:27;99425.34;;;20.66;96.19
30463;BME280;17256;43.618;25.336;2022-09-16T22:58:58;99686.56;;;22.17;98.34
30463;BME280;17256;43.618;25.336;2022-09-16T23:01:31;99539.75;;;21.24;99.21
30463;BME280;17256;43.618;25.336;2022-09-16T23:04:01;99424.72;;;20.40;99.77
30463;BME280;17256;43.618;25.336;2022-09-16T23:06:30;99392.69;;;20.37;99.72
30463;BME280;17256;43.618;25.336;2022-09-16T23:09:04;99612.47;;;21.66;98.44
30463;BME280;17256;43.618;25.336;2022-09-16T23:11:36;99647.47;;;22.12;98.84
30463;BME280;17256;43.618;25.336;2022-09-16T23:14:04;99546.41;;;21.52;96.74
30463;BME280;17256;43.618;25.336;2022-09-16T23:16:36;99654.19;;;22.10;97.68
30463;BME280;17256;43.618;25.336;2022-09-16T23:19:08;99239.00;;;19.62;95.87
30463;BME280;17256;43.618;25.336;2022-09-16T23:21:36;99644.06;;;22.15;95.75
30463;BME280;17256;43.618;25.336;2022-09-16T23:24:05;99502.25;;;21.30;95.49
30463;BME280;17256;43.618;25.336;2022-09-16T23:26:34;99245.34;;;19.67;95.04
30463;BME280;17256;43.618;25.336;2022-09-16T23:29:05;99438.19;;;20.91;95.00
30463;BME280;17256;43.618;25.336;2022-09-16T23:31:36;99146.13;;;19.14;95.13
30463;BME280;17256;43.618;25.336;2022-09-16T23:34:16;99540.13;;;21.65;94.92
30463;BME280;17256;43.618;25.336;2022-09-16T23:36:42;99582.63;;;21.86;94.83
30463;BME280;17256;43.618;25.336;2022-09-16T23:39:12;99527.38;;;21.59;93.96
30463;BME280;17256;43.618;25.336;2022-09-16T23:41:40;99624.97;;;22.22;93.91
30463;BME280;17256;43.618;25.336;2022-09-16T23:44:10;99220.94;;;19.59;92.94
30463;BME280;17256;43.618;25.336;2022-09-16T23:46:43;99233.63;;;19.71;92.72
30463;BME280;17256;43.618;25.336;2022-09-16T23:49:12;99276.88;;;20.21;92.24
30463;BME280;17256;43.618;25.336;2022-09-16T23:51:42;99272.63;;;20.00;92.26
30463;BME280;17256;43.618;25.336;2022-09-16T23:54:13;99379.00;;;20.70;91.42
30463;BME280;17256;43.618;25.336;2022-09-16T23:56:56;99537.94;;;21.62;91.46
30463;BME280;17256;43.618;25.336;2022-09-16T23:59:28;99222.63;;;19.84;91.21
